createdAt,value
2023-09-08T04:01:48.990Z,5.63
2023-09-08T04:04:21.116Z,4.90
2023-09-08T04:06:53.266Z,4.60
2023-09-08T04:09:25.300Z,4.97
2023-09-08T04:11:57.461Z,4.80
2023-09-08T04:14:29.505Z,5.03
2023-09-08T04:17:02.891Z,5.18
2023-09-08T04:19:35.605Z,5.57
2023-09-08T04:22:07.716Z,4.95
2023-09-08T04:24:39.867Z,5.00
2023-09-08T04:27:14.466Z,5.40
2023-09-08T04:29:47.722Z,5.57
2023-09-08T04:32:21.177Z,5.00
2023-09-08T04:34:53.211Z,5.75
2023-09-08T04:37:25.284Z,5.20
2023-09-08T04:39:57.359Z,5.30
2023-09-08T04:42:29.492Z,5.38
2023-09-08T04:45:01.754Z,5.28
2023-09-08T04:47:35.149Z,5.70
2023-09-08T04:50:07.566Z,5.20
2023-09-08T04:52:39.716Z,5.35
2023-09-08T04:55:11.789Z,5.22
2023-09-08T04:57:43.869Z,5.18
2023-09-08T05:00:16.288Z,4.75
2023-09-08T05:02:49.821Z,5.13
2023-09-08T05:05:21.991Z,5.20
2023-09-08T05:07:54.045Z,5.13
2023-09-08T05:10:26.108Z,4.97
2023-09-08T05:12:58.162Z,5.03
2023-09-08T05:15:30.267Z,5.95
2023-09-08T05:18:03.909Z,4.82
2023-09-08T05:20:36.032Z,5.40
2023-09-08T05:23:08.067Z,5.40
2023-09-08T05:25:40.072Z,4.78
2023-09-08T05:28:12.186Z,4.85
2023-09-08T05:30:44.234Z,5.72
2023-09-08T05:33:17.707Z,4.93
2023-09-08T05:35:49.795Z,5.20
2023-09-08T05:38:21.847Z,5.25
2023-09-08T05:40:53.974Z,5.25
2023-09-08T05:43:26.740Z,4.63
2023-09-08T05:45:58.862Z,4.43
2023-09-08T05:48:32.807Z,5.13
2023-09-08T05:51:04.980Z,4.53
2023-09-08T05:53:37.125Z,4.47
2023-09-08T05:56:09.286Z,4.38
2023-09-08T05:58:41.400Z,4.10
2023-09-08T06:01:13.467Z,4.00
2023-09-08T06:03:46.987Z,4.70
2023-09-08T06:06:19.117Z,4.32
2023-09-08T06:08:51.184Z,4.03
2023-09-08T06:11:23.221Z,4.20
2023-09-08T06:13:55.264Z,3.72
2023-09-08T06:16:27.341Z,3.95
2023-09-08T06:19:00.735Z,4.20
2023-09-08T06:21:32.784Z,3.90
2023-09-08T06:24:05.165Z,4.22
2023-09-08T06:26:37.336Z,3.80
2023-09-08T06:29:09.387Z,3.83
2023-09-08T06:31:41.610Z,3.80
2023-09-08T06:34:15.182Z,3.65
2023-09-08T06:36:47.333Z,3.67
2023-09-08T06:39:19.377Z,3.50
2023-09-08T06:41:51.426Z,3.55
2023-09-08T06:44:23.481Z,3.83
2023-09-08T06:46:55.164Z,3.70
2023-09-08T06:49:28.203Z,3.58
2023-09-08T06:51:59.976Z,3.47
2023-09-08T06:54:31.624Z,3.45
2023-09-08T06:57:03.709Z,3.72
2023-09-08T06:59:35.386Z,3.40
2023-09-08T07:02:08.369Z,3.60
2023-09-08T07:04:41.679Z,3.53
2023-09-08T07:07:13.500Z,3.50
2023-09-08T07:09:45.253Z,3.60
2023-09-08T07:12:17.011Z,3.03
2023-09-08T07:14:48.733Z,3.80
2023-09-08T07:17:20.502Z,3.55
2023-09-08T07:19:53.625Z,3.63
2023-09-08T07:22:25.339Z,3.63
2023-09-08T07:24:57.026Z,3.63
2023-09-08T07:27:28.717Z,3.65
2023-09-08T07:30:00.479Z,3.55
2023-09-08T07:32:32.299Z,3.40
2023-09-08T07:35:05.734Z,3.58
2023-09-08T07:37:37.435Z,3.65
2023-09-08T07:40:10.675Z,3.63
2023-09-08T07:42:42.427Z,4.30
2023-09-08T07:45:14.104Z,3.40
2023-09-08T07:47:45.843Z,3.45
2023-09-08T07:50:20.429Z,3.75
2023-09-08T07:52:52.688Z,3.58
2023-09-08T07:55:24.457Z,3.72
2023-09-08T07:57:56.231Z,3.58
2023-09-08T08:00:27.901Z,3.95
2023-09-08T08:02:59.789Z,3.90
2023-09-08T08:05:32.960Z,3.75
2023-09-08T08:08:05.000Z,4.05
2023-09-08T08:10:36.691Z,4.05
2023-09-08T08:13:08.428Z,4.20
2023-09-08T08:15:40.952Z,4.10
2023-09-08T08:18:12.734Z,3.97
2023-09-08T08:20:45.910Z,4.13
2023-09-08T08:23:17.785Z,3.42
2023-09-08T08:25:49.864Z,3.92
2023-09-08T08:28:21.537Z,4.25
2023-09-08T08:30:53.273Z,3.72
2023-09-08T08:33:25.051Z,3.78
2023-09-08T08:35:58.111Z,3.63
2023-09-08T08:38:29.759Z,3.83
2023-09-08T08:41:04.987Z,3.70
2023-09-08T08:43:36.694Z,3.63
2023-09-08T08:46:08.445Z,4.15
2023-09-08T08:48:40.160Z,4.40
2023-09-08T08:51:13.213Z,3.72
2023-09-08T08:53:44.938Z,3.90
2023-09-08T08:56:16.618Z,4.35
2023-09-08T08:58:48.291Z,3.80
2023-09-08T09:01:20.152Z,4.32
2023-09-08T09:03:51.915Z,4.15
2023-09-08T09:06:24.969Z,4.18
2023-09-08T09:08:56.654Z,3.92
2023-09-08T09:11:28.333Z,4.13
2023-09-08T09:14:00.116Z,3.70
2023-09-08T09:16:31.803Z,4.45
2023-09-08T09:19:03.525Z,3.95
2023-09-08T09:21:46.363Z,3.75
2023-09-08T09:24:20.859Z,4.00
2023-09-08T09:26:52.983Z,3.90
2023-09-08T09:29:24.641Z,4.20
2023-09-08T09:31:57.378Z,3.75
2023-09-08T09:34:29.028Z,4.10
2023-09-08T09:37:02.063Z,4.05
2023-09-08T09:39:33.748Z,4.28
2023-09-08T09:42:05.869Z,4.10
2023-09-08T09:44:37.569Z,4.07
2023-09-08T09:47:09.270Z,3.75
2023-09-08T09:49:42.896Z,3.78
2023-09-08T09:52:21.860Z,4.45
2023-09-08T09:54:53.803Z,4.20
2023-09-08T09:57:25.502Z,4.55
2023-09-08T09:59:57.196Z,4.03
2023-09-08T10:02:29.047Z,4.25
2023-09-08T10:05:00.727Z,4.05
2023-09-08T10:07:33.758Z,3.80
2023-09-08T10:10:06.279Z,3.80
2023-09-08T10:12:38.129Z,3.55
2023-09-08T10:15:10.152Z,4.28
2023-09-08T10:17:42.125Z,4.00
2023-09-08T10:20:13.828Z,4.03
2023-09-08T10:22:48.073Z,3.80
2023-09-08T10:25:19.781Z,4.18
2023-09-08T10:27:51.776Z,3.97
2023-09-08T10:30:23.480Z,3.92
2023-09-08T10:32:55.291Z,3.92
2023-09-08T10:35:27.024Z,3.83
2023-09-08T10:38:23.407Z,4.40
2023-09-08T10:41:15.321Z,4.25
2023-09-08T10:43:47.172Z,3.75
2023-09-08T10:46:22.736Z,3.78
2023-09-08T10:48:54.636Z,4.13
2023-09-08T10:51:26.429Z,4.20
2023-09-08T10:53:59.476Z,3.58
2023-09-08T10:56:48.850Z,3.97
2023-09-08T10:59:20.609Z,3.90
2023-09-08T11:01:52.286Z,4.20
2023-09-08T11:04:24.710Z,3.70
2023-09-08T11:06:57.666Z,3.75
2023-09-08T11:09:36.066Z,4.05
2023-09-08T11:12:08.532Z,3.70
2023-09-08T11:14:40.245Z,3.70
2023-09-08T11:17:11.955Z,3.72
2023-09-08T11:19:45.641Z,3.60
2023-09-08T11:22:17.440Z,3.80
2023-09-08T11:24:50.470Z,5.20
2023-09-08T11:27:22.196Z,3.85
2023-09-08T11:29:53.901Z,3.63
2023-09-08T11:32:25.680Z,3.72
2023-09-08T11:34:57.380Z,4.13
2023-09-08T11:37:29.055Z,4.13
2023-09-08T11:40:02.197Z,6.20
2023-09-08T11:42:34.018Z,6.40
2023-09-08T11:45:06.418Z,6.53
2023-09-08T11:47:38.129Z,8.35
2023-09-08T11:50:10.353Z,4.00
2023-09-08T11:52:42.803Z,4.30
2023-09-08T11:55:16.250Z,3.50
2023-09-08T11:57:49.695Z,3.70
2023-09-08T12:00:21.855Z,3.50
2023-09-08T12:02:53.546Z,3.47
2023-09-08T12:05:25.973Z,3.28
2023-09-08T12:07:58.391Z,3.92
2023-09-08T12:10:31.496Z,3.35
2023-09-08T12:13:03.269Z,3.50
2023-09-08T12:15:35.963Z,3.45
2023-09-08T12:18:08.695Z,3.58
2023-09-08T12:20:40.773Z,3.85
2023-09-08T12:23:19.284Z,3.80
2023-09-08T12:25:52.872Z,3.42
2023-09-08T12:28:24.667Z,3.63
2023-09-08T12:30:56.404Z,3.90
2023-09-08T12:33:28.094Z,3.47
2023-09-08T12:35:59.821Z,3.53
2023-09-08T12:38:32.041Z,3.35
2023-09-08T12:41:05.076Z,3.63
2023-09-08T12:43:36.788Z,3.95
2023-09-08T12:46:08.571Z,3.55
2023-09-08T12:48:40.325Z,3.90
2023-09-08T12:51:12.036Z,3.60
2023-09-08T12:53:43.746Z,3.58
2023-09-08T12:56:16.827Z,3.47
2023-09-08T12:58:48.514Z,3.70
2023-09-08T13:01:20.247Z,3.60
2023-09-08T13:03:52.006Z,3.40
2023-09-08T13:06:23.719Z,3.85
2023-09-08T13:08:55.379Z,3.65
2023-09-08T13:11:28.983Z,3.60
2023-09-08T13:14:00.712Z,3.45
2023-09-08T13:16:33.027Z,3.50
2023-09-08T13:19:05.374Z,3.50
2023-09-08T13:21:37.059Z,4.35
2023-09-08T13:24:09.849Z,3.80
2023-09-08T13:26:42.913Z,3.80
2023-09-08T13:29:14.738Z,3.80
2023-09-08T13:31:46.478Z,3.53
2023-09-08T13:34:18.778Z,3.40
2023-09-08T13:36:50.737Z,3.50
2023-09-08T13:39:22.422Z,4.03
2023-09-08T13:41:55.940Z,3.95
2023-09-08T13:44:27.886Z,3.60
2023-09-08T13:46:59.846Z,3.63
2023-09-08T13:49:32.810Z,3.60
2023-09-08T13:52:06.495Z,4.03
2023-09-08T13:54:40.503Z,3.75
2023-09-08T13:57:14.672Z,3.88
2023-09-08T13:59:49.428Z,3.85
2023-09-08T14:05:00.643Z,3.50
2023-09-08T14:07:37.786Z,3.63
2023-09-08T14:10:28.566Z,3.80
2023-09-08T14:13:03.356Z,3.70
2023-09-08T14:15:35.100Z,3.53
2023-09-08T14:18:07.005Z,3.53
2023-09-08T14:20:38.704Z,3.60
2023-09-08T14:23:10.404Z,3.63
2023-09-08T14:25:42.124Z,4.15
2023-09-08T14:28:15.148Z,3.70
2023-09-08T14:30:46.854Z,4.00
2023-09-08T14:33:18.594Z,3.70
2023-09-08T14:35:50.373Z,4.20
2023-09-08T14:38:22.094Z,3.58
2023-09-08T14:40:57.283Z,3.35
2023-09-08T14:43:30.486Z,3.85
2023-09-08T14:46:02.203Z,3.80
2023-09-08T14:48:33.922Z,4.07
2023-09-08T14:51:05.626Z,4.00
2023-09-08T14:53:37.492Z,3.85
2023-09-08T14:56:09.323Z,3.60
2023-09-08T14:58:42.377Z,3.92
2023-09-08T15:01:14.108Z,3.72
2023-09-08T15:03:45.878Z,3.83
2023-09-08T15:06:17.645Z,3.60
2023-09-08T15:08:49.308Z,3.47
2023-09-08T15:11:21.041Z,3.65
2023-09-08T15:13:54.090Z,3.78
2023-09-08T15:16:25.860Z,3.90
2023-09-08T15:18:58.200Z,3.60
2023-09-08T15:21:30.039Z,3.97
2023-09-08T15:24:01.713Z,3.88
2023-09-08T15:26:33.378Z,3.72
2023-09-08T15:29:06.471Z,4.03
2023-09-08T15:31:38.311Z,3.95
2023-09-08T15:34:10.086Z,3.67
2023-09-08T15:36:41.791Z,3.42
2023-09-08T15:39:13.536Z,3.38
2023-09-08T15:41:45.225Z,3.40
2023-09-08T15:44:19.398Z,4.10
2023-09-08T15:46:51.085Z,3.92
2023-09-08T15:49:23.404Z,3.85
2023-09-08T15:52:08.911Z,3.78
2023-09-08T15:54:47.034Z,3.58
2023-09-08T15:57:18.736Z,3.92
2023-09-08T15:59:51.799Z,4.15
2023-09-08T16:02:23.633Z,4.15
2023-09-08T16:04:55.504Z,3.58
2023-09-08T16:07:27.239Z,4.30
2023-09-08T16:09:58.921Z,3.90
2023-09-08T16:12:30.645Z,3.42
2023-09-08T16:15:04.122Z,3.80
2023-09-08T16:17:35.884Z,3.75
2023-09-08T16:20:08.485Z,3.78
2023-09-08T16:22:40.190Z,4.38
2023-09-08T16:25:11.917Z,4.38
2023-09-08T16:27:43.683Z,5.05
2023-09-08T16:30:16.878Z,4.57
2023-09-08T16:32:48.576Z,3.85
2023-09-08T16:35:20.275Z,4.20
2023-09-08T16:37:51.937Z,3.70
2023-09-08T16:40:23.748Z,4.18
2023-09-08T16:42:55.573Z,3.88
2023-09-08T16:45:28.590Z,4.00
2023-09-08T16:48:00.358Z,3.83
2023-09-08T16:50:32.061Z,3.92
2023-09-08T16:53:03.912Z,4.03
2023-09-08T16:55:35.580Z,3.60
2023-09-08T16:58:07.249Z,3.92
2023-09-08T17:00:40.271Z,3.88
2023-09-08T17:03:13.113Z,3.97
2023-09-08T17:05:44.927Z,3.70
2023-09-08T17:08:16.649Z,3.53
2023-09-08T17:10:48.357Z,3.63
2023-09-08T17:13:20.030Z,3.63
2023-09-08T17:15:53.089Z,4.57
2023-09-08T17:18:24.840Z,4.32
2023-09-08T17:20:56.579Z,4.22
2023-09-08T17:23:28.355Z,4.40
2023-09-08T17:26:00.039Z,4.63
2023-09-08T17:28:33.981Z,4.72
2023-09-08T17:31:08.787Z,4.93
2023-09-08T17:33:40.796Z,5.50
2023-09-08T17:36:12.705Z,5.22
2023-09-08T17:38:44.441Z,4.80
2023-09-08T17:41:16.138Z,4.78
2023-09-08T17:43:47.826Z,4.85
2023-09-08T17:46:20.914Z,5.05
2023-09-08T17:48:52.767Z,4.38
2023-09-08T17:51:24.471Z,5.03
2023-09-08T17:53:56.128Z,5.13
2023-09-08T17:56:27.795Z,5.72
2023-09-08T17:58:59.454Z,6.38
2023-09-08T18:01:32.544Z,5.82
2023-09-08T18:04:04.878Z,6.03
2023-09-08T18:06:36.695Z,5.30
2023-09-08T18:09:08.531Z,5.18
2023-09-08T18:11:40.273Z,5.70
2023-09-08T18:14:12.814Z,5.07
2023-09-08T18:16:45.844Z,5.18
2023-09-08T18:19:17.804Z,5.32
2023-09-08T18:21:49.524Z,4.75
2023-09-08T18:24:21.232Z,5.28
2023-09-08T18:26:52.940Z,5.20
2023-09-08T18:29:24.617Z,6.00
2023-09-08T18:31:58.761Z,5.53
2023-09-08T18:34:30.493Z,5.53
2023-09-08T18:37:02.155Z,5.20
2023-09-08T18:39:33.847Z,6.00
2023-09-08T18:42:05.720Z,5.45
2023-09-08T18:44:37.425Z,5.55
2023-09-08T18:47:10.725Z,6.05
2023-09-08T18:49:42.575Z,5.85
2023-09-08T18:52:14.231Z,6.00
2023-09-08T18:54:45.922Z,5.53
2023-09-08T18:57:17.579Z,6.05
2023-09-08T18:59:50.075Z,5.88
2023-09-08T19:02:23.272Z,6.13
2023-09-08T19:04:55.159Z,6.07
2023-09-08T19:07:26.971Z,6.70
2023-09-08T19:09:58.669Z,5.65
2023-09-08T19:12:30.375Z,6.50
2023-09-08T19:15:02.176Z,6.80
2023-09-08T19:17:35.330Z,6.40
2023-09-08T19:20:08.563Z,6.88
2023-09-08T19:22:40.305Z,6.85
2023-09-08T19:25:12.039Z,7.00
2023-09-08T19:27:43.786Z,6.90
2023-09-08T19:30:16.323Z,7.32
2023-09-08T19:32:49.393Z,6.70
2023-09-08T19:35:21.145Z,6.15
2023-09-08T19:37:52.903Z,6.55
2023-09-08T19:40:24.647Z,5.90
2023-09-08T19:42:56.341Z,6.70
2023-09-08T19:45:27.979Z,6.90
2023-09-08T19:48:01.129Z,11.27
2023-09-08T19:50:32.919Z,11.60
2023-09-08T19:53:05.025Z,12.32
2023-09-08T19:55:36.804Z,25.13
2023-09-08T19:58:08.480Z,25.85
2023-09-08T20:00:40.165Z,23.40
2023-09-08T20:03:13.306Z,32.97
2023-09-08T20:05:45.170Z,26.50
2023-09-08T20:08:16.840Z,34.72
2023-09-08T20:10:51.611Z,19.77
2023-09-08T20:13:23.305Z,14.80
2023-09-08T20:16:01.324Z,18.90
2023-09-08T20:18:34.711Z,14.40
2023-09-08T20:21:06.547Z,8.57
2023-09-08T20:23:38.358Z,12.70
2023-09-08T20:26:10.333Z,16.02
2023-09-08T20:28:42.011Z,16.77
2023-09-08T20:31:16.734Z,11.95
2023-09-08T20:33:50.554Z,16.70
2023-09-08T20:36:22.233Z,18.38
2023-09-08T20:38:53.904Z,16.27
2023-09-08T20:41:25.605Z,20.15
2023-09-08T20:43:57.329Z,30.30
2023-09-08T20:46:29.102Z,24.75
2023-09-08T20:49:02.155Z,13.45
2023-09-08T20:51:33.840Z,17.40
2023-09-08T20:54:05.997Z,21.52
2023-09-08T20:56:38.317Z,17.52
2023-09-08T20:59:10.020Z,19.35
2023-09-08T21:01:41.813Z,18.05
2023-09-08T21:04:14.939Z,19.05
2023-09-08T21:06:46.695Z,16.65
2023-09-08T21:09:18.427Z,10.52
2023-09-08T21:11:50.202Z,17.38
2023-09-08T21:14:22.980Z,12.02
2023-09-08T21:16:54.664Z,13.55
2023-09-08T21:19:27.692Z,13.25
2023-09-08T21:21:59.439Z,13.88
2023-09-08T21:24:31.132Z,11.82
2023-09-08T21:27:02.874Z,19.35
2023-09-08T21:29:34.743Z,13.85
2023-09-08T21:32:06.644Z,11.63
2023-09-08T21:34:39.708Z,11.13
2023-09-08T21:37:11.403Z,11.82
2023-09-08T21:39:43.073Z,13.55
2023-09-08T21:42:14.826Z,10.20
2023-09-08T21:44:46.550Z,8.50
2023-09-08T21:47:18.211Z,16.75
2023-09-08T21:49:51.314Z,9.32
2023-09-08T21:52:35.842Z,8.63
2023-09-08T21:55:10.299Z,7.32
2023-09-08T21:57:42.036Z,8.50
